Airfield :
LOGIN :

Register | Disclaimer

   EN    FR    IT 

 










Legend :    VFR   Marginal VFR   IFR   Intensive IFR   Very Intensive IFR
Visi :
Ceiling :
>= 8 km
>= 3000ft
5 to 8 km
1000 to 3000 ft
1500m to 5 km
500 to 1000 ft
800 to 1500m
200 to 500 ft
< 800m
< 200 ft
Symbols :   Thunderstorms  Fog  Heavy snow  Heavy precipitations  Wind > 20 kt
SIGMETs :     Misc.  Thunderstorms  Icing  Turbulence  Mountain Waves  Volcanic Ashes







- Airport Elevation : 319 ft


EIME - Casement Air Base

CURRENT METAR :
  • 161330Z 07004KT 030V100 9000 -DZ FEW004 BKN010 BKN015 13/11 Q1025

EXPIRED METARs :
  • 161300Z 09005KT 050V110 9000 -DZ FEW004 BKN010 BKN015 13/12 Q1025
  • 161230Z 09004KT 9000 -DZ FEW004 BKN007 BKN014 13/12 Q1025
  • 161200Z 06004KT 030V100 9000 -DZ FEW004 BKN007 BKN015 13/12 Q1025
  • 161130Z 05005KT 030V090 9000 -DZ FEW004 BKN007 BKN014 13/12 Q1025
  • 161100Z 04006KT 020V080 9000 -DZ FEW004 BKN007 BKN022 13/12 Q1024

TAF TAF EIME
Valid from the 16 at 12:00 until the 16 at 21:00 UTC


161100Z 1612/1621 04006KT 7000 -DZ BKN007
BECMG 1612/1613 9999 NSW BKN012
BECMG 1613/1615 VRB03KT FEW012 SCT025
BECMG 1616/1618 34006KT
BECMG 1618/1621 31005KT
No reported NOTAMs for that airfield.



MET'MAP, your aeronautical weather chart ! - Copyright ORBIFLY December 2007 - Disclaimer

ORBIFLY MET'MAP TEAM :

Programming & Development : Alexandra Zaïnal
Concept & Development : Baudouin d'Aumeries
Co-Development & Prog : Marc-Olivier Méhu
Technical & hardware support : Manuel Goepfert

Contact : metmap@orbifly.com




SOURCES & CREDITS :

   NOAA